Time;durP1;ratioP1;P1;durP2;ratioP2;P2;SDS_P1;SDS_P2;PMS_P1;PMS_P2;Temp;Humidity;BMP_temperature;BMP_pressure;BME280_temperature;BME280_humidity;BME280_pressure;Samples;Min_cycle;Max_cycle;Signal;HPM_P1;HPM_P2
2022/04/02 00:00:26;;;;;;;;;;;;;;;4.51;64.08;90918.50;2048529;70;20134;-74
2022/04/02 00:02:52;;;;;;;;;;;;;;;4.85;62.20;90914.00;2048628;70;20050;-74
2022/04/02 00:05:17;;;;;;;;;;;;;;;4.83;61.85;90923.00;2048834;70;20059;-74
2022/04/02 00:07:43;;;;;;;;;;;;;;;4.92;62.02;90921.38;2049131;70;20117;-74
2022/04/02 00:10:09;;;;;;;;;;;;;;;4.58;63.44;90923.78;2049199;70;20055;-74
2022/04/02 00:12:34;;;;;;;;;;;;;;;4.79;62.66;90925.56;2049219;70;20050;-74
2022/04/02 00:15:00;;;;;;;;;;;;;;;4.62;63.87;90916.97;2048759;70;20137;-74
2022/04/02 00:17:26;;;;;;;;;;;;;;;4.22;65.53;90921.81;2048812;70;20492;-74
2022/04/02 00:19:52;;;;;;;;;;;;;;;3.89;67.20;90916.47;2049117;70;20497;-74
2022/04/02 00:22:18;;;;;;;;;;;;;;;4.37;66.03;90912.16;2049245;70;20051;-74
2022/04/02 00:24:43;;;;;;;;;;;;;;;4.71;64.02;90913.25;2049271;70;20453;-74
2022/04/02 00:27:09;;;;;;;;;;;;;;;4.69;64.04;90915.97;2048737;70;20406;-75
2022/04/02 00:29:38;;;;;;;;;;;;;;;4.53;64.25;90913.00;2048649;70;20043;-75
2022/04/02 00:32:04;;;;;;;;;;;;;;;4.14;66.61;90910.94;2049424;70;20075;-75
2022/04/02 00:34:30;;;;;;;;;;;;;;;4.02;67.64;90915.81;2049199;70;20075;-75
2022/04/02 00:36:55;;;;;;;;;;;;;;;4.03;67.12;90912.44;2049397;70;20055;-74
2022/04/02 00:39:20;;;;;;;;;;;;;;;4.55;64.35;90916.66;2048964;70;20050;-75
2022/04/02 00:41:46;;;;;;;;;;;;;;;4.58;64.88;90914.69;2048302;70;20456;-74
2022/04/02 00:44:13;;;;;;;;;;;;;;;4.77;63.79;90919.19;2048481;70;20046;-74
2022/04/02 00:46:40;;;;;;;;;;;;;;;4.17;66.40;90923.66;2045770;70;20441;-75
2022/04/02 00:49:08;;;;;;;;;;;;;;;4.05;67.00;90915.34;2046010;70;20502;-74
2022/04/02 00:51:41;;;;;;;;;;;;;;;4.54;64.94;90912.41;2049138;70;20078;-75
2022/04/02 00:54:14;;;;;;;;;;;;;;;3.92;67.79;90924.34;2048675;70;20058;-75
2022/04/02 00:56:41;;;;;;;;;;;;;;;3.72;69.02;90926.00;2048355;70;20146;-74
2022/04/02 00:59:08;;;;;;;;;;;;;;;3.64;69.91;90925.53;2045587;70;20494;-75
2022/04/02 01:01:35;;;;;;;;;;;;;;;4.03;67.99;90931.19;2048454;70;20136;-76
2022/04/02 01:04:02;;;;;;;;;;;;;;;3.54;70.22;90931.97;2049109;70;20142;-75
2022/04/02 01:06:33;;;;;;;;;;;;;;;4.00;68.39;90927.59;2048868;70;20051;-74
2022/04/02 01:08:59;;;;;;;;;;;;;;;4.01;67.73;90929.03;2045759;70;20047;-75
2022/04/02 01:11:34;;;;;;;;;;;;;;;4.04;68.56;90932.66;2045780;70;20074;-76
2022/04/02 01:13:59;;;;;;;;;;;;;;;3.95;68.98;90933.53;2051796;70;20062;-75
2022/04/02 01:16:25;;;;;;;;;;;;;;;3.81;68.93;90933.47;2055643;69;20502;-75
2022/04/02 01:18:58;;;;;;;;;;;;;;;4.21;66.78;90939.84;2068687;69;20074;-75
2022/04/02 01:21:29;;;;;;;;;;;;;;;3.82;68.22;90934.91;2068896;69;20480;-75
2022/04/02 01:23:57;;;;;;;;;;;;;;;3.51;70.73;90941.53;2068755;69;20048;-76
2022/04/02 01:26:23;;;;;;;;;;;;;;;3.56;70.46;90943.19;2068752;69;20046;-74
2022/04/02 01:28:56;;;;;;;;;;;;;;;3.46;71.10;90950.25;2068309;69;20077;-74
2022/04/02 01:31:28;;;;;;;;;;;;;;;3.27;71.73;90940.84;2068591;69;20568;-74
2022/04/02 01:33:56;;;;;;;;;;;;;;;3.37;71.68;90946.25;2068348;69;20485;-74
2022/04/02 01:36:26;;;;;;;;;;;;;;;3.50;71.11;90944.91;2068702;69;20047;-74
2022/04/02 01:39:01;;;;;;;;;;;;;;;3.24;72.66;90950.38;2068678;69;20054;-74
2022/04/02 01:41:28;;;;;;;;;;;;;;;3.48;72.00;90947.56;2068790;69;20049;-74
2022/04/02 01:43:55;;;;;;;;;;;;;;;3.49;70.99;90940.69;2065631;69;20075;-74
2022/04/02 01:46:20;;;;;;;;;;;;;;;3.68;71.14;90942.47;2067960;69;20069;-74
2022/04/02 01:48:49;;;;;;;;;;;;;;;3.83;69.18;90936.34;2067940;69;20086;-74
2022/04/02 01:51:15;;;;;;;;;;;;;;;3.53;70.91;90936.09;2065815;69;20090;-74
2022/04/02 01:53:41;;;;;;;;;;;;;;;3.64;71.11;90933.88;2055685;70;20486;-75
2022/04/02 01:56:10;;;;;;;;;;;;;;;3.85;69.76;90936.47;2068621;69;20054;-74
2022/04/02 01:58:39;;;;;;;;;;;;;;;4.12;68.42;90933.09;2065490;69;20154;-75
2022/04/02 02:01:08;;;;;;;;;;;;;;;4.18;69.10;90939.00;2065017;69;20418;-75
2022/04/02 02:03:35;;;;;;;;;;;;;;;4.14;67.97;90933.22;2065188;69;20086;-74
2022/04/02 02:06:00;;;;;;;;;;;;;;;4.17;67.14;90934.78;2062285;69;20102;-74
2022/04/02 02:08:27;;;;;;;;;;;;;;;4.21;66.83;90943.34;2048957;70;20054;-74
2022/04/02 02:10:58;;;;;;;;;;;;;;;3.98;68.96;90941.38;2052015;69;20059;-75
2022/04/02 02:13:47;;;;;;;;;;;;;;;4.02;67.64;90944.38;2058098;69;20094;-74
2022/04/02 02:16:19;;;;;;;;;;;;;;;3.52;70.14;90947.81;2042404;70;20067;-74
2022/04/02 02:18:45;;;;;;;;;;;;;;;3.94;67.65;90941.19;2045196;70;20071;-74
2022/04/02 02:21:11;;;;;;;;;;;;;;;3.36;71.44;90944.81;2045545;70;20607;-74
2022/04/02 02:23:39;;;;;;;;;;;;;;;3.45;71.34;90943.22;2047768;70;20152;-74
2022/04/02 02:26:05;;;;;;;;;;;;;;;3.13;72.70;90936.50;2045765;70;20483;-74
2022/04/02 02:28:30;;;;;;;;;;;;;;;3.10;73.26;90941.22;2044587;70;20103;-74
2022/04/02 02:30:58;;;;;;;;;;;;;;;3.12;72.38;90940.63;2044897;70;20113;-75
2022/04/02 02:36:09;;;;;;;;;;;;;;;3.24;72.67;90930.19;2044969;70;20106;-74
2022/04/02 02:38:53;;;;;;;;;;;;;;;3.31;71.21;90934.78;2044956;69;20086;-74
2022/04/02 02:41:27;;;;;;;;;;;;;;;3.13;72.16;90926.09;2045047;70;20048;-74
2022/04/02 02:43:57;;;;;;;;;;;;;;;2.64;74.09;90928.75;2042177;70;20097;-74
2022/04/02 02:46:32;;;;;;;;;;;;;;;3.15;72.70;90923.44;2045581;70;20476;-75
2022/04/02 02:49:03;;;;;;;;;;;;;;;3.20;71.44;90922.34;2045209;70;20113;-75
2022/04/02 02:51:29;;;;;;;;;;;;;;;2.93;72.75;90922.13;2045059;70;20058;-75
2022/04/02 02:53:55;;;;;;;;;;;;;;;2.87;73.54;90916.94;2044519;70;20079;-74
2022/04/02 02:56:22;;;;;;;;;;;;;;;3.00;72.94;90912.81;2042226;70;20136;-75
2022/04/02 02:58:49;;;;;;;;;;;;;;;2.97;74.27;90916.81;2044600;70;20511;-75
2022/04/02 03:01:16;;;;;;;;;;;;;;;2.94;74.46;90920.81;2042204;70;20146;-73
2022/04/02 03:03:44;;;;;;;;;;;;;;;2.57;74.27;90915.84;2044814;70;20535;-74
2022/04/02 03:06:13;;;;;;;;;;;;;;;3.15;72.18;90922.72;2044494;70;20484;-74
2022/04/02 03:08:42;;;;;;;;;;;;;;;2.86;73.84;90923.09;2044768;70;20529;-75
2022/04/02 03:11:08;;;;;;;;;;;;;;;2.78;73.97;90915.72;2044544;70;20099;-74
2022/04/02 03:13:37;;;;;;;;;;;;;;;2.87;74.60;90918.97;2047384;70;20163;-74
2022/04/02 03:16:08;;;;;;;;;;;;;;;2.49;75.31;90907.72;2048533;70;20496;-75
2022/04/02 03:18:41;;;;;;;;;;;;;;;2.46;74.62;90905.44;2065011;69;20057;-73
2022/04/02 03:21:10;;;;;;;;;;;;;;;2.71;74.92;90916.69;2065134;69;20117;-75
2022/04/02 03:23:35;;;;;;;;;;;;;;;3.05;73.39;90917.28;2045980;70;20163;-74
2022/04/02 03:26:01;;;;;;;;;;;;;;;3.24;72.76;90921.84;2045974;69;20043;-74
2022/04/02 03:28:32;;;;;;;;;;;;;;;3.45;70.64;90918.91;2064608;69;20883;-75
2022/04/02 03:30:58;;;;;;;;;;;;;;;3.34;70.36;90918.94;2064679;69;20053;-74
2022/04/02 03:33:23;;;;;;;;;;;;;;;3.08;71.67;90921.63;2064572;69;20087;-74
2022/04/02 03:35:50;;;;;;;;;;;;;;;3.02;71.53;90912.94;2061993;69;20509;-74
2022/04/02 03:38:15;;;;;;;;;;;;;;;3.46;70.17;90917.59;2064703;69;20058;-74
2022/04/02 03:40:43;;;;;;;;;;;;;;;3.68;68.54;90914.63;2064724;69;20483;-74
2022/04/02 03:43:10;;;;;;;;;;;;;;;3.62;68.01;90914.28;2064531;69;20430;-75
2022/04/02 03:45:36;;;;;;;;;;;;;;;3.68;66.99;90914.63;2064359;69;20600;-75
2022/04/02 03:48:04;;;;;;;;;;;;;;;3.61;67.95;90921.16;2064562;69;20092;-76
2022/04/02 03:50:37;;;;;;;;;;;;;;;3.82;65.97;90921.00;2046736;69;20047;-75
2022/04/02 03:53:03;;;;;;;;;;;;;;;3.79;66.92;90922.22;2064467;69;20123;-75
2022/04/02 03:55:33;;;;;;;;;;;;;;;3.65;68.15;90922.13;2046360;69;20475;-75
2022/04/02 03:58:03;;;;;;;;;;;;;;;3.73;67.42;90919.09;2064502;69;20498;-75
2022/04/02 04:00:29;;;;;;;;;;;;;;;3.83;66.43;90925.94;2067084;69;20494;-75
2022/04/02 04:03:02;;;;;;;;;;;;;;;3.86;65.92;90928.84;2064382;69;20054;-75
2022/04/02 04:05:32;;;;;;;;;;;;;;;3.55;68.16;90924.34;2064370;69;20150;-74
2022/04/02 04:08:01;;;;;;;;;;;;;;;3.75;66.52;90922.69;2064408;69;20478;-74
2022/04/02 04:10:28;;;;;;;;;;;;;;;3.67;68.36;90927.81;2051430;70;20506;-76
2022/04/02 04:12:55;;;;;;;;;;;;;;;3.75;67.29;90936.63;2051513;69;20120;-74
2022/04/02 04:15:24;;;;;;;;;;;;;;;3.74;65.67;90937.94;2061582;69;20098;-74
2022/04/02 04:17:52;;;;;;;;;;;;;;;3.68;67.44;90939.69;2064344;69;20055;-75
2022/04/02 04:20:23;;;;;;;;;;;;;;;3.86;64.90;90948.34;2063803;69;20157;-75
2022/04/02 04:22:49;;;;;;;;;;;;;;;4.06;63.46;90941.13;2067161;69;20537;-75
2022/04/02 04:25:16;;;;;;;;;;;;;;;3.75;65.94;90949.81;2064313;69;20441;-75
2022/04/02 04:27:44;;;;;;;;;;;;;;;3.75;65.67;90947.75;2064319;69;20087;-76
2022/04/02 04:30:10;;;;;;;;;;;;;;;3.67;65.69;90944.53;2051291;69;20054;-76
2022/04/02 04:32:36;;;;;;;;;;;;;;;3.75;65.78;90947.75;2064353;69;20062;-76
2022/04/02 04:35:04;;;;;;;;;;;;;;;3.67;66.54;90944.53;2048299;70;20081;-75
2022/04/02 04:37:34;;;;;;;;;;;;;;;3.73;65.60;90953.22;2048206;70;20164;-76
2022/04/02 04:40:00;;;;;;;;;;;;;;;3.68;65.59;90954.31;2064420;69;20465;-75
2022/04/02 04:42:25;;;;;;;;;;;;;;;2.89;69.26;90947.63;2045433;69;20078;-75
2022/04/02 04:44:55;;;;;;;;;;;;;;;3.35;67.35;90957.28;2064234;69;20525;-75
2022/04/02 04:47:20;;;;;;;;;;;;;;;3.31;66.58;90960.53;2051676;70;20563;-75
2022/04/02 04:49:49;;;;;;;;;;;;;;;2.65;69.97;90960.03;2046474;69;20086;-75
2022/04/02 04:52:15;;;;;;;;;;;;;;;3.17;68.10;90959.72;2051951;69;20062;-75
2022/04/02 04:54:42;;;;;;;;;;;;;;;3.47;66.84;90960.75;2064919;69;20149;-75
2022/04/02 04:57:15;;;;;;;;;;;;;;;3.46;67.00;90953.75;2064923;69;20082;-75
2022/04/02 04:59:48;;;;;;;;;;;;;;;3.52;67.06;90972.84;2051872;69;20046;-75
2022/04/02 05:02:16;;;;;;;;;;;;;;;3.62;66.87;90969.91;2064868;69;20050;-75
2022/04/02 05:04:42;;;;;;;;;;;;;;;3.60;66.07;90969.81;2046156;69;20082;-75
2022/04/02 05:07:08;;;;;;;;;;;;;;;3.66;66.71;90973.66;2062132;69;20153;-75
2022/04/02 05:09:33;;;;;;;;;;;;;;;3.66;67.27;90968.09;2064933;69;20153;-75
2022/04/02 05:12:03;;;;;;;;;;;;;;;3.69;67.20;90980.81;2064884;69;20055;-75
2022/04/02 05:14:30;;;;;;;;;;;;;;;3.75;66.43;90978.34;2064779;69;20483;-75
2022/04/02 05:16:58;;;;;;;;;;;;;;;3.63;68.59;90982.53;2064941;69;20063;-75
2022/04/02 05:19:32;;;;;;;;;;;;;;;3.46;68.79;90980.84;2051913;70;20062;-75
2022/04/02 05:22:01;;;;;;;;;;;;;;;3.76;64.98;90985.41;2064918;69;20054;-75
2022/04/02 05:24:26;;;;;;;;;;;;;;;3.60;64.84;90987.22;2064829;69;20193;-75
2022/04/02 05:26:55;;;;;;;;;;;;;;;3.78;65.55;90988.28;2046299;69;20094;-75
2022/04/02 05:29:22;;;;;;;;;;;;;;;3.77;64.00;90997.25;2064808;69;20051;-75
2022/04/02 05:31:48;;;;;;;;;;;;;;;3.95;62.43;90992.72;2064901;69;20421;-75
2022/04/02 05:34:14;;;;;;;;;;;;;;;3.14;66.46;90996.34;2051978;70;20065;-75
2022/04/02 05:36:43;;;;;;;;;;;;;;;3.61;65.72;90994.25;2051916;70;20058;-76
2022/04/02 05:39:08;;;;;;;;;;;;;;;3.53;64.73;90999.34;2046327;69;20058;-76
2022/04/02 05:41:37;;;;;;;;;;;;;;;3.64;64.30;90998.59;2062194;69;20097;-76
2022/04/02 05:44:03;;;;;;;;;;;;;;;3.87;62.93;91003.41;2064820;69;20472;-76
2022/04/02 05:46:29;;;;;;;;;;;;;;;3.90;63.64;91009.81;2051899;70;20490;-75
2022/04/02 05:48:55;;;;;;;;;;;;;;;3.95;62.33;91008.72;2052071;69;20164;-76
2022/04/02 05:51:21;;;;;;;;;;;;;;;3.84;63.15;91010.16;2052041;69;20126;-75
2022/04/02 05:53:47;;;;;;;;;;;;;;;3.81;63.11;91014.19;2052042;70;20129;-76
2022/04/02 05:56:14;;;;;;;;;;;;;;;3.72;61.92;91015.06;2052178;70;20104;-76
2022/04/02 05:58:41;;;;;;;;;;;;;;;3.78;62.66;91020.97;2064911;69;20051;-75
2022/04/02 06:01:07;;;;;;;;;;;;;;;3.63;63.86;91021.47;2051404;70;20055;-76
2022/04/02 06:03:33;;;;;;;;;;;;;;;3.81;63.38;91033.66;2065187;69;20425;-76
2022/04/02 06:05:58;;;;;;;;;;;;;;;3.72;64.89;91029.69;2052041;70;20062;-75
2022/04/02 06:08:24;;;;;;;;;;;;;;;3.58;64.98;91026.09;2052150;70;20079;-76
2022/04/02 06:10:49;;;;;;;;;;;;;;;3.77;64.43;91036.22;2052020;69;20050;-76
2022/04/02 06:13:15;;;;;;;;;;;;;;;3.69;64.00;91038.53;2052004;70;20142;-76
2022/04/02 06:15:40;;;;;;;;;;;;;;;3.83;63.30;91034.50;2051944;70;20073;-76
2022/04/02 06:18:07;;;;;;;;;;;;;;;3.67;64.24;91043.97;2052149;69;20485;-76
2022/04/02 06:20:33;;;;;;;;;;;;;;;3.80;63.31;91040.56;2049080;69;20137;-76
2022/04/02 06:22:59;;;;;;;;;;;;;;;3.53;63.38;91046.66;2065031;69;20207;-76
2022/04/02 06:25:25;;;;;;;;;;;;;;;3.44;64.15;91048.22;2052017;70;20074;-76
2022/04/02 06:27:51;;;;;;;;;;;;;;;3.78;62.66;91046.00;2052084;70;20065;-76
2022/04/02 06:30:20;;;;;;;;;;;;;;;3.66;63.01;91039.72;2065034;69;20055;-76
2022/04/02 06:32:46;;;;;;;;;;;;;;;4.03;62.26;91054.44;2052103;70;20087;-75
2022/04/02 06:35:13;;;;;;;;;;;;;;;4.16;60.76;91052.34;2052015;70;20111;-76
2022/04/02 06:37:40;;;;;;;;;;;;;;;3.97;61.77;91051.31;2065085;69;20059;-76
2022/04/02 06:40:06;;;;;;;;;;;;;;;3.92;61.83;91048.91;2052032;70;20130;-76
2022/04/02 06:42:32;;;;;;;;;;;;;;;3.64;62.30;91048.69;2051940;70;20085;-76
2022/04/02 06:44:59;;;;;;;;;;;;;;;3.99;61.50;91054.22;2064950;69;20055;-76
2022/04/02 06:47:25;;;;;;;;;;;;;;;3.99;61.71;91050.72;2052065;70;20085;-76
2022/04/02 06:49:51;;;;;;;;;;;;;;;4.02;59.99;91055.03;2052083;69;20070;-76
2022/04/02 06:52:16;;;;;;;;;;;;;;;4.09;61.25;91051.28;2052161;70;20058;-76
2022/04/02 06:54:42;;;;;;;;;;;;;;;4.22;59.84;91056.22;2051965;70;20050;-76
2022/04/02 06:57:07;;;;;;;;;;;;;;;3.95;61.52;91064.38;2048877;69;20490;-76
2022/04/02 06:59:32;;;;;;;;;;;;;;;4.17;60.92;91065.69;2064973;69;20050;-76
2022/04/02 07:01:58;;;;;;;;;;;;;;;3.95;62.41;91073.47;2052077;69;20522;-76
2022/04/02 07:04:24;;;;;;;;;;;;;;;3.91;61.86;91072.50;2052027;70;20135;-76
2022/04/02 07:06:50;;;;;;;;;;;;;;;3.69;62.43;91080.25;2052095;70;20131;-76
2022/04/02 07:09:18;;;;;;;;;;;;;;;4.08;62.91;91086.75;2051910;70;20097;-75
2022/04/02 07:11:43;;;;;;;;;;;;;;;4.36;61.58;91086.22;2046072;69;20067;-76
2022/04/02 07:14:10;;;;;;;;;;;;;;;4.64;59.82;91082.25;2051823;70;20119;-76
2022/04/02 07:16:36;;;;;;;;;;;;;;;4.44;60.21;91090.16;2051996;70;20054;-76
2022/04/02 07:19:02;;;;;;;;;;;;;;;4.61;58.62;91091.81;2052168;70;20078;-75
2022/04/02 07:21:28;;;;;;;;;;;;;;;3.63;56.55;91102.16;2052022;70;20463;-75
2022/04/02 07:23:55;;;;;;;;;;;;;;;3.65;58.78;91100.22;2065094;69;20134;-76
2022/04/02 07:26:20;;;;;;;;;;;;;;;4.01;57.84;91101.66;2052029;69;20138;-76
2022/04/02 07:28:47;;;;;;;;;;;;;;;3.83;55.16;91095.75;2051781;70;20232;-75
2022/04/02 07:31:12;;;;;;;;;;;;;;;3.98;54.65;91102.13;2052144;70;20058;-74
2022/04/02 07:33:38;;;;;;;;;;;;;;;3.60;54.29;91106.88;2065040;69;20047;-75
2022/04/02 07:36:19;;;;;;;;;;;;;;;3.70;55.19;91101.91;2051944;69;20134;-76
2022/04/02 07:38:50;;;;;;;;;;;;;;;4.29;53.56;91110.19;2048770;70;20094;-76
2022/04/02 07:41:22;;;;;;;;;;;;;;;4.11;53.78;91107.09;2064947;69;20050;-76
2022/04/02 07:43:53;;;;;;;;;;;;;;;3.67;52.80;91108.72;2051888;70;20081;-76
2022/04/02 07:46:24;;;;;;;;;;;;;;;4.23;53.13;91121.72;2052020;69;20047;-76
2022/04/02 07:48:49;;;;;;;;;;;;;;;4.15;51.41;91114.97;2064982;69;20169;-75
2022/04/02 07:51:20;;;;;;;;;;;;;;;4.30;49.72;91114.44;2064977;69;20054;-75
2022/04/02 07:53:49;;;;;;;;;;;;;;;4.13;49.57;91120.41;2052110;70;20049;-75
2022/04/02 07:56:18;;;;;;;;;;;;;;;4.34;50.23;91126.53;2051980;69;20093;-76
2022/04/02 07:58:45;;;;;;;;;;;;;;;5.06;50.57;91111.03;2048582;70;20563;-75
2022/04/02 08:01:12;;;;;;;;;;;;;;;5.04;49.34;91125.59;2052013;70;20079;-75
2022/04/02 08:03:42;;;;;;;;;;;;;;;5.50;49.89;91128.75;2064968;69;20039;-77
2022/04/02 08:06:08;;;;;;;;;;;;;;;5.83;49.19;91125.59;2051896;70;20123;-76
2022/04/02 08:08:33;;;;;;;;;;;;;;;5.11;48.30;91129.44;2065005;69;20051;-76
2022/04/02 08:11:01;;;;;;;;;;;;;;;5.34;47.99;91131.38;2052023;70;20120;-75
2022/04/02 08:13:29;;;;;;;;;;;;;;;5.61;46.96;91139.09;2064783;69;20124;-75
2022/04/02 08:15:57;;;;;;;;;;;;;;;5.38;47.64;91139.25;2048482;69;20043;-75
2022/04/02 08:18:24;;;;;;;;;;;;;;;5.21;47.49;91141.16;2064893;69;20123;-75
2022/04/02 08:20:50;;;;;;;;;;;;;;;4.97;48.35;91146.09;2051985;70;20077;-74
2022/04/02 08:23:17;;;;;;;;;;;;;;;5.15;49.58;91143.59;2062413;69;20098;-75
2022/04/02 08:25:46;;;;;;;;;;;;;;;5.28;47.36;91145.72;2062611;69;20209;-75
2022/04/02 08:28:13;;;;;;;;;;;;;;;5.97;47.61;91145.94;2052423;69;20050;-75
2022/04/02 08:30:44;;;;;;;;;;;;;;;6.05;47.50;91151.94;2052186;70;20055;-75
2022/04/02 08:33:16;;;;;;;;;;;;;;;6.27;46.61;91165.59;2052331;70;20050;-75
2022/04/02 08:35:47;;;;;;;;;;;;;;;5.66;46.95;91160.31;2052473;70;20061;-74
2022/04/02 08:38:28;;;;;;;;;;;;;;;5.96;45.04;91160.53;2052247;70;20222;-75
2022/04/02 08:40:53;;;;;;;;;;;;;;;5.64;46.31;91153.91;2052408;70;20061;-74
2022/04/02 08:43:24;;;;;;;;;;;;;;;6.08;45.78;91155.56;2065371;69;20055;-75
2022/04/02 08:45:57;;;;;;;;;;;;;;;6.19;45.73;91168.72;2052259;69;20050;-75
2022/04/02 08:48:28;;;;;;;;;;;;;;;6.07;45.89;91163.22;2052418;69;20043;-76
2022/04/02 08:50:55;;;;;;;;;;;;;;;6.41;45.10;91166.31;2049132;70;20520;-76
2022/04/02 08:53:42;;;;;;;;;;;;;;;6.51;45.20;91168.94;2052265;70;20050;-76
2022/04/02 08:56:09;;;;;;;;;;;;;;;5.89;43.04;91169.88;2065416;69;20055;-75
2022/04/02 08:58:41;;;;;;;;;;;;;;;5.95;43.28;91175.81;2052398;70;20066;-74
2022/04/02 09:01:08;;;;;;;;;;;;;;;5.61;44.43;91169.81;2052105;69;20106;-75
2022/04/02 09:03:33;;;;;;;;;;;;;;;5.79;44.15;91172.88;2052376;70;20051;-75
2022/04/02 09:06:22;;;;;;;;;;;;;;;5.87;44.86;91173.31;2052199;70;20061;-74
2022/04/02 09:09:07;;;;;;;;;;;;;;;5.56;46.06;91174.44;2066516;69;20224;-74
2022/04/02 09:11:32;;;;;;;;;;;;;;;5.86;45.13;91180.22;2065606;69;20051;-76
2022/04/02 09:14:17;;;;;;;;;;;;;;;6.14;45.30;91178.22;2055490;70;20114;-75
2022/04/02 09:17:01;;;;;;;;;;;;;;;5.80;44.65;91188.28;2068504;69;20153;-75
2022/04/02 09:19:27;;;;;;;;;;;;;;;5.46;45.19;91181.56;2055737;70;20046;-73
2022/04/02 09:22:20;;;;;;;;;;;;;;;5.52;45.94;91187.47;2055685;70;20417;-75
2022/04/02 09:25:01;;;;;;;;;;;;;;;5.83;44.39;91184.25;2068558;69;20097;-75
2022/04/02 09:27:45;;;;;;;;;;;;;;;6.64;45.32;91184.94;2068796;69;20053;-75
2022/04/02 09:30:29;;;;;;;;;;;;;;;6.99;44.23;91187.41;2068451;69;20055;-75
2022/04/02 09:33:23;;;;;;;;;;;;;;;7.37;43.11;91185.03;2055714;70;20073;-75
2022/04/02 09:35:57;;;;;;;;;;;;;;;7.78;42.76;91184.84;2055669;70;20078;-74
2022/04/02 09:38:43;;;;;;;;;;;;;;;7.82;42.14;91181.53;2055521;70;20112;-73
2022/04/02 09:41:12;;;;;;;;;;;;;;;7.47;42.45;91185.53;2055865;70;20107;-75
2022/04/02 09:43:38;;;;;;;;;;;;;;;7.48;42.39;91189.06;2055633;70;20578;-77
2022/04/02 09:46:22;;;;;;;;;;;;;;;7.77;41.79;91189.00;2055422;70;20046;-76
2022/04/02 09:48:54;;;;;;;;;;;;;;;8.06;41.78;91195.91;2055672;70;20486;-75
2022/04/02 09:51:20;;;;;;;;;;;;;;;8.39;42.23;91195.34;2055535;70;20073;-74
2022/04/02 09:53:55;;;;;;;;;;;;;;;7.81;41.37;91194.09;2065889;69;20046;-75
2022/04/02 09:56:33;;;;;;;;;;;;;;;7.88;42.14;91202.16;2055769;70;20051;-74
2022/04/02 09:58:58;;;;;;;;;;;;;;;8.42;41.69;91198.94;2068682;69;20058;-76
2022/04/02 10:01:36;;;;;;;;;;;;;;;8.10;40.62;91202.44;2055744;69;20120;-76
2022/04/02 10:04:10;;;;;;;;;;;;;;;7.49;42.28;91213.59;2056019;70;20050;-77
2022/04/02 10:06:40;;;;;;;;;;;;;;;8.20;41.75;91207.81;2055696;70;20138;-76
2022/04/02 10:09:11;;;;;;;;;;;;;;;6.97;41.30;91218.09;2055784;69;20074;-74
2022/04/02 10:11:48;;;;;;;;;;;;;;;7.35;41.74;91212.94;2055740;70;20115;-74
2022/04/02 10:14:17;;;;;;;;;;;;;;;7.82;41.95;91210.25;2055630;69;20058;-74
2022/04/02 10:16:48;;;;;;;;;;;;;;;7.68;40.89;91209.59;2068856;69;20054;-78
2022/04/02 10:19:14;;;;;;;;;;;;;;;7.02;41.21;91219.00;2055874;70;20098;-77
2022/04/02 10:21:39;;;;;;;;;;;;;;;6.36;42.80;91212.91;2055700;70;20093;-78
2022/04/02 10:24:19;;;;;;;;;;;;;;;7.30;42.49;91216.88;2055643;69;20135;-78
2022/04/02 10:26:48;;;;;;;;;;;;;;;7.92;41.27;91223.28;2055833;69;20199;-77
2022/04/02 10:29:21;;;;;;;;;;;;;;;7.25;40.04;91226.44;2055612;69;20054;-74
2022/04/02 10:31:54;;;;;;;;;;;;;;;7.44;39.18;91222.44;2068696;69;20513;-75
2022/04/02 10:34:37;;;;;;;;;;;;;;;7.74;40.35;91214.75;2055745;70;20046;-73
2022/04/02 10:37:12;;;;;;;;;;;;;;;7.93;40.04;91217.06;2068740;69;20115;-73
2022/04/02 10:39:56;;;;;;;;;;;;;;;7.69;40.01;91219.44;2068709;69;20117;-73
2022/04/02 10:42:28;;;;;;;;;;;;;;;7.40;39.66;91222.97;2055737;70;20584;-74
2022/04/02 10:44:58;;;;;;;;;;;;;;;7.90;39.90;91221.13;2055640;70;20595;-73
2022/04/02 10:47:26;;;;;;;;;;;;;;;7.82;38.81;91226.34;2068647;69;20494;-71
2022/04/02 10:49:56;;;;;;;;;;;;;;;7.56;40.20;91231.41;2055623;69;20054;-73
2022/04/02 10:52:23;;;;;;;;;;;;;;;6.97;39.72;91232.09;2055674;70;20054;-72
2022/04/02 10:54:49;;;;;;;;;;;;;;;7.68;40.03;91240.41;2055579;70;20499;-74
2022/04/02 10:57:15;;;;;;;;;;;;;;;7.11;40.44;91243.97;2055585;69;20058;-73
2022/04/02 10:59:44;;;;;;;;;;;;;;;6.94;41.35;91241.00;2055409;69;20513;-73
2022/04/02 11:02:19;;;;;;;;;;;;;;;7.73;39.84;91249.72;2068635;69;20486;-74
2022/04/02 11:05:03;;;;;;;;;;;;;;;7.24;40.21;91255.75;2068748;69;20066;-78
2022/04/02 11:07:29;;;;;;;;;;;;;;;7.09;40.01;91265.53;2055626;70;20094;-74
2022/04/02 11:10:01;;;;;;;;;;;;;;;7.07;40.82;91262.63;2055524;70;20164;-73
2022/04/02 11:12:27;;;;;;;;;;;;;;;6.76;40.68;91263.16;2055465;69;20050;-73
2022/04/02 11:14:53;;;;;;;;;;;;;;;7.12;40.20;91258.69;2055338;69;20410;-73
2022/04/02 11:17:32;;;;;;;;;;;;;;;6.74;40.33;91269.38;2068625;69;20527;-74
2022/04/02 11:20:17;;;;;;;;;;;;;;;6.97;40.20;91288.03;2068563;69;20538;-74
2022/04/02 11:22:45;;;;;;;;;;;;;;;6.76;40.95;91274.34;2068673;69;20050;-75
2022/04/02 11:25:14;;;;;;;;;;;;;;;7.00;40.94;91281.19;2055501;70;20054;-75
2022/04/02 11:27:40;;;;;;;;;;;;;;;6.13;41.68;91299.69;2055662;70;20517;-74
2022/04/02 11:30:07;;;;;;;;;;;;;;;5.89;42.78;91292.75;2065617;69;20101;-76
2022/04/02 11:32:37;;;;;;;;;;;;;;;5.96;42.10;91289.72;2055587;70;20094;-77
2022/04/02 11:35:06;;;;;;;;;;;;;;;5.97;42.25;91296.75;2068584;69;20506;-75
2022/04/02 11:37:35;;;;;;;;;;;;;;;6.05;42.56;91294.41;2068571;69;20054;-74
2022/04/02 11:40:06;;;;;;;;;;;;;;;5.34;42.76;91293.94;2068507;69;20430;-74
2022/04/02 11:42:36;;;;;;;;;;;;;;;5.70;42.23;91302.94;2068578;69;20124;-76
2022/04/02 11:45:06;;;;;;;;;;;;;;;4.82;45.33;91302.78;2055396;69;20058;-74
2022/04/02 11:47:35;;;;;;;;;;;;;;;5.57;42.94;91304.31;2068513;69;20050;-75
2022/04/02 11:50:05;;;;;;;;;;;;;;;4.70;44.48;91302.06;2055490;69;20054;-75
2022/04/02 11:53:09;;;;;;;;;;;;;;;4.52;44.53;91310.06;2055460;70;20053;-74
2022/04/02 11:55:36;;;;;;;;;;;;;;;4.92;44.32;91317.31;2041594;70;20094;-74
2022/04/02 11:58:08;;;;;;;;;;;;;;;4.59;44.61;91320.97;2041855;70;20508;-74
2022/04/02 12:00:35;;;;;;;;;;;;;;;4.47;46.47;91325.81;2039172;70;20063;-73
2022/04/02 12:03:01;;;;;;;;;;;;;;;4.60;45.81;91324.50;2039335;70;20056;-76
2022/04/02 12:05:34;;;;;;;;;;;;;;;5.38;45.25;91326.22;2042004;70;20062;-75
2022/04/02 12:07:59;;;;;;;;;;;;;;;5.33;45.17;91331.56;2039399;70;20055;-77
2022/04/02 12:10:26;;;;;;;;;;;;;;;5.62;45.37;91335.97;2042529;70;20121;-74
2022/04/02 12:12:53;;;;;;;;;;;;;;;5.47;45.51;91331.66;2042079;70;20066;-77
2022/04/02 12:15:19;;;;;;;;;;;;;;;5.25;45.64;91335.94;2041964;70;20117;-75
2022/04/02 12:17:46;;;;;;;;;;;;;;;4.85;47.52;91338.53;2041987;70;20044;-76
2022/04/02 12:20:13;;;;;;;;;;;;;;;4.89;46.93;91340.84;2041976;70;20484;-73
2022/04/02 12:22:41;;;;;;;;;;;;;;;4.47;48.71;91344.59;2042003;70;20047;-73
2022/04/02 12:25:08;;;;;;;;;;;;;;;4.17;49.30;91346.97;2041910;70;20059;-72
2022/04/02 12:27:36;;;;;;;;;;;;;;;4.26;77.89;91353.75;2055498;69;20486;-71
2022/04/02 12:30:09;;;;;;;;;;;;;;;4.19;86.95;91355.44;2054456;70;20128;-73
2022/04/02 12:32:42;;;;;;;;;;;;;;;3.68;54.77;91352.28;2068284;69;20129;-73
2022/04/02 12:35:09;;;;;;;;;;;;;;;4.27;52.68;91355.22;2064602;69;20067;-75
2022/04/02 12:37:45;;;;;;;;;;;;;;;4.47;51.64;91355.75;2052352;70;20053;-73
2022/04/02 12:40:17;;;;;;;;;;;;;;;4.32;51.17;91368.81;2052580;70;20095;-74
2022/04/02 12:42:44;;;;;;;;;;;;;;;4.20;53.62;91367.31;2064568;69;20621;-73
2022/04/02 12:45:20;;;;;;;;;;;;;;;3.73;52.61;91365.13;2052050;70;20184;-73
2022/04/02 12:47:54;;;;;;;;;;;;;;;4.66;52.80;91363.16;2065461;69;20066;-74
2022/04/02 12:50:20;;;;;;;;;;;;;;;4.42;50.46;91365.91;2052589;70;20416;-73
2022/04/02 12:52:47;;;;;;;;;;;;;;;4.29;49.67;91372.78;2052542;70;20050;-73
2022/04/02 12:55:17;;;;;;;;;;;;;;;3.94;49.31;91375.50;2065446;69;20209;-74
2022/04/02 12:58:03;;;;;;;;;;;;;;;4.50;48.62;91371.25;2052578;70;20116;-73
2022/04/02 13:00:32;;;;;;;;;;;;;;;4.01;49.68;91374.53;2065209;69;20042;-73
2022/04/02 13:02:58;;;;;;;;;;;;;;;3.88;48.69;91385.50;2065297;69;20058;-73
2022/04/02 13:05:25;;;;;;;;;;;;;;;3.98;49.19;91386.13;2052498;70;20189;-73
2022/04/02 13:08:00;;;;;;;;;;;;;;;4.52;48.89;91382.53;2052249;70;20247;-72
2022/04/02 13:10:28;;;;;;;;;;;;;;;3.83;49.05;91392.88;2062661;69;20090;-72